Etusivu
METAR-TAF:

METAR-TAF

Lentoasemat :

Atlanta, Georgia, Yhdysvallat

Leveyspiiri: 33-54-43N, Pituuspiiri: 084-56-26W, korkeus merenpinnasta: 393 m

Tämänhetkinen sää

Tämä raportti tehtiin 24 minuuttia sitten, kello 00.15 UTC
tyyntä
Lämpötila 16°C
Kosteus 100%
Ilmanpaine 1012 hPa
Näkyvyys: 16.1 km
Hajanaisia pilviä 6500 ft:n korkeudessa
Pilvistä 8000 ft:n korkeudessa
tihkusadetta

METAR: KPUJ 260015Z AUTO 00000KT 10SM DZ SCT065 OVC080 16/16 A2988 RMK AO2

Aika: 20:39 (00:39 UTC)


TAF: puuttuu

Säähavainnot ja -ennusteet yli 4000 lentoasemalta (METAR- ja TAF-raportit).

Käytössä olevat sääasemat on merkitty karttaan keltaisilla ja punaisilla pisteillä.

Aseta hiiri pisteen päälle nähdäksesi sääaseman nimen.

Klikkaa sitten nähdäksesi säähavainnot ja -ennusteet.

Kartan vaihtaminen: klikkaa mustalla rastilla varustettuja vihreitä pisteitä, niin voit zoomata sisään; viivalla varustettua vihreää pistettä, niin voit zoomata ulos tai vihreitä nuolia, niin pääset viereisille kartoille.


METAR-TAF: